Time;durP1;ratioP1;P1;durP2;ratioP2;P2;SDS_P1;SDS_P2;PMS_P1;PMS_P2;Temp;Humidity;BMP_temperature;BMP_pressure;BME280_temperature;BME280_humidity;BME280_pressure;Samples;Min_cycle;Max_cycle;Signal;HPM_P1;HPM_P2
2021/04/16 00:01:51;;;;;;;;;;;;;;;;;;;;;
2021/04/16 00:04:46;;;;;;;8.90;6.03;;;-0.30;99.90;;;;;;4887437;29;20470;-91
2021/04/16 00:07:41;;;;;;;8.85;6.25;;;-0.40;99.90;;;;;;4856113;29;20325;-91
2021/04/16 00:10:41;;;;;;;12.00;6.60;;;-0.50;99.90;;;;;;4858981;29;20136;-91
2021/04/16 00:13:43;;;;;;;13.27;6.07;;;-0.60;99.90;;;;;;4841105;29;20057;-92
2021/04/16 00:16:26;;;;;;;8.55;6.20;;;-0.70;99.90;;;;;;4862918;29;20148;-90
2021/04/16 00:19:21;;;;;;;7.70;5.65;;;-0.70;99.90;;;;;;4866171;29;20061;-92
2021/04/16 00:22:04;;;;;;;;;;;;;;;;;;;;;
2021/04/16 00:25:10;;;;;;;11.40;5.70;;;-0.60;99.90;;;;;;4939257;29;20055;-91
2021/04/16 00:28:07;;;;;;;7.57;6.03;;;-0.60;99.90;;;;;;4957710;29;20400;-91
2021/04/16 00:31:28;;;;;;;;;;;;;;;;;;;;;
2021/04/16 00:34:33;;;;;;;10.68;6.40;;;-0.70;99.90;;;;;;4942761;28;20057;-92
2021/04/16 00:37:31;;;;;;;9.63;6.07;;;-0.70;99.90;;;;;;4933356;29;20067;-92
2021/04/16 00:40:11;;;;;;;8.70;5.72;;;-0.80;99.90;;;;;;4953333;29;20097;-92
2021/04/16 00:43:17;;;;;;;9.98;6.35;;;-0.80;99.90;;;;;;4910962;29;20439;-92
2021/04/16 00:46:36;;;;;;;;;;;;;;;;;;;;;
2021/04/16 00:50:06;;;;;;;;;;;;;;;;;;;;;
2021/04/16 00:53:24;;;;;;;6.43;5.38;;;-1.00;99.90;;;;;;4977370;28;20225;-91
2021/04/16 00:56:24;;;;;;;9.98;5.53;;;-1.10;99.90;;;;;;4987977;28;20121;-92
2021/04/16 00:59:08;;;;;;;15.13;6.50;;;-1.20;99.90;;;;;;4990326;28;20080;-91
2021/04/16 01:02:13;;;;;;;10.55;5.60;;;-1.20;99.90;;;;;;5051286;28;20099;-91
2021/04/16 01:05:25;;;;;;;;;;;;;;;;;;;;;
2021/04/16 01:08:18;;;;;;;10.15;5.93;;;-1.00;99.90;;;;;;5010477;28;20097;-92
2021/04/16 01:11:39;;;;;;;6.40;5.63;;;-1.00;99.90;;;;;;4996337;28;20042;-91
2021/04/16 01:14:54;;;;;;;;;;;;;;;;;;;;;
2021/04/16 01:18:27;;;;;;;;;;;;;;;;;;;;;
2021/04/16 01:25:08;;;;;;;12.35;6.82;;;-1.30;99.90;;;;;;4892771;29;20458;-91
2021/04/16 01:27:43;;;;;;;;;;;-1.30;99.90;;;;;;4899859;29;20135;-92
2021/04/16 01:30:28;;;;;;;9.98;7.45;;;-1.40;99.90;;;;;;4944495;29;19930;-90
2021/04/16 01:33:49;;;;;;;;;;;;;;;;;;;;;
2021/04/16 01:36:46;;;;;;;11.05;6.93;;;-1.50;99.90;;;;;;5004377;28;20120;-92
2021/04/16 01:39:51;;;;;;;;;;;;;;;;;;;;;
2021/04/16 01:43:01;;;;;;;;;;;;;;;;;;;;;
2021/04/16 01:49:05;;;;;;;;;;;;;;;;;;;;;
2021/04/16 01:52:23;;;;;;;;;;;;;;;;;;;;;
2021/04/16 01:55:22;;;;;;;;;;;;;;;;;;;;;
2021/04/16 01:58:49;;;;;;;;;;;;;;;;;;;;;
2021/04/16 02:02:18;;;;;;;;;;;;;;;;;;;;;
2021/04/16 02:05:36;;;;;;;;;;;;;;;;;;;;;
2021/04/16 02:09:05;;;;;;;;;;;;;;;;;;;;;
2021/04/16 02:12:39;;;;;;;11.35;6.70;;;-1.70;99.90;;;;;;4800773;29;20127;-91
2021/04/16 02:15:36;;;;;;;;;;;;;;;;;;;;;
2021/04/16 02:18:41;;;;;;;;;;;;;;;;;;;;;
2021/04/16 02:21:50;;;;;;;10.45;6.78;;;-1.50;99.90;;;;;;4821150;29;20051;-89
2021/04/16 02:25:02;;;;;;;;;;;;;;;;;;;;;
2021/04/16 02:28:14;;;;;;;;;;;;;;;;;;;;;
2021/04/16 02:30:52;;;;;;;;;;;;;;;;;;;;;
2021/04/16 02:33:58;;;;;;;;;;;;;;;;;;;;;
2021/04/16 02:37:16;;;;;;;;;;;;;;;;;;;;;
2021/04/16 02:40:18;;;;;;;9.77;5.90;;;-1.70;99.90;;;;;;4813941;29;20485;-86
2021/04/16 02:43:28;;;;;;;;;;;;;;;;;;;;;
2021/04/16 02:46:30;;;;;;;;;;;;;;;;;;;;;
2021/04/16 02:49:15;;;;;;;8.93;6.57;;;-2.00;99.90;;;;;;4953060;29;20063;-90
2021/04/16 02:51:51;;;;;;;10.50;7.03;;;-2.10;99.90;;;;;;4950399;29;20138;-90
2021/04/16 02:54:40;;;;;;;10.23;7.15;;;-2.20;99.90;;;;;;4928986;29;20055;-90
2021/04/16 02:57:14;;;;;;;9.23;7.40;;;-2.30;99.90;;;;;;4958487;28;20039;-91
2021/04/16 02:59:52;;;;;;;;;;;;;;;;;;;;;
2021/04/16 03:02:31;;;;;;;10.65;6.93;;;-2.40;99.90;;;;;;4969709;28;20501;-90
2021/04/16 03:05:18;;;;;;;11.73;7.80;;;-2.30;99.90;;;;;;4938238;29;20062;-90
2021/04/16 03:07:52;;;;;;;13.77;7.57;;;-2.40;99.90;;;;;;4948430;29;20047;-92
2021/04/16 03:10:24;;;;;;;;;;;-2.40;99.90;;;;;;4949432;28;20118;-91
2021/04/16 03:13:06;;;;;;;;;;;;;;;;;;;;;
2021/04/16 03:15:38;;;;;;;13.20;7.85;;;-2.40;99.90;;;;;;4962219;29;20628;-91
2021/04/16 03:18:10;;;;;;;10.98;7.57;;;-2.40;99.90;;;;;;4960393;28;20458;-90
2021/04/16 03:20:49;;;;;;;15.95;8.18;;;-2.40;99.90;;;;;;5031349;28;20081;-90
2021/04/16 03:23:27;;;;;;;13.52;8.48;;;-2.40;99.90;;;;;;5037157;28;20045;-90
2021/04/16 03:26:20;;;;;;;15.07;9.70;;;-2.40;99.90;;;;;;5007464;28;20053;-89
2021/04/16 03:29:44;;;;;;;15.85;8.55;;;-2.40;99.90;;;;;;5026219;28;20057;-90
2021/04/16 03:32:29;;;;;;;15.25;8.43;;;-2.30;99.90;;;;;;5038179;28;20061;-89
2021/04/16 03:35:21;;;;;;;11.70;7.13;;;-2.40;99.90;;;;;;5039292;28;20049;-92
2021/04/16 03:38:24;;;;;;;13.65;8.88;;;-2.40;99.90;;;;;;5024388;28;20049;-91
2021/04/16 03:41:15;;;;;;;11.80;7.60;;;-2.40;99.90;;;;;;5030245;28;20045;-92
2021/04/16 03:44:12;;;;;;;12.13;7.95;;;-2.40;99.90;;;;;;5041790;28;20046;-91
2021/04/16 03:46:55;;;;;;;16.65;8.23;;;-2.50;99.90;;;;;;5030631;28;20178;-90
2021/04/16 03:50:03;;;;;;;;;;;;;;;;;;;;;
2021/04/16 03:52:45;;;;;;;13.85;8.05;;;-2.50;99.90;;;;;;4983293;28;20078;-92
2021/04/16 03:55:24;;;;;;;12.10;8.65;;;-2.50;99.90;;;;;;4966782;28;20055;-90
2021/04/16 03:58:25;;;;;;;14.15;9.30;;;-2.60;99.90;;;;;;4974848;28;20113;-90
2021/04/16 04:01:05;;;;;;;11.63;8.13;;;-2.50;99.90;;;;;;4964397;28;20050;-90
2021/04/16 04:03:47;;;;;;;14.02;8.93;;;-2.60;99.90;;;;;;4967642;28;20111;-91
2021/04/16 04:06:41;;;;;;;13.40;9.48;;;-2.60;99.90;;;;;;5011788;28;20081;-91
2021/04/16 04:09:39;;;;;;;;;;;;;;;;;;;;;
2021/04/16 04:12:16;;;;;;;19.60;9.00;;;-2.60;99.90;;;;;;5007202;28;20220;-91
2021/04/16 04:15:19;;;;;;;16.55;9.73;;;-2.70;99.90;;;;;;5060131;28;20079;-91
2021/04/16 04:18:14;;;;;;;12.48;8.98;;;-2.70;99.90;;;;;;5059632;28;20135;-90
2021/04/16 04:20:53;;;;;;;15.15;9.20;;;-2.70;99.90;;;;;;5041857;28;20041;-89
2021/04/16 04:23:35;;;;;;;12.05;9.18;;;-2.80;99.90;;;;;;5060072;28;20056;-91
2021/04/16 04:26:21;;;;;;;;;;;;;;;;;;;;;
2021/04/16 04:29:27;;;;;;;14.60;9.15;;;-2.80;99.90;;;;;;5018698;28;20128;-92
2021/04/16 04:32:12;;;;;;;14.50;9.93;;;-2.80;99.90;;;;;;5035823;28;20118;-91
2021/04/16 04:34:49;;;;;;;15.13;9.80;;;-2.80;99.90;;;;;;5020427;28;20354;-91
2021/04/16 04:37:39;;;;;;;14.27;9.48;;;-2.80;99.90;;;;;;4998619;28;20056;-91
2021/04/16 04:40:23;;;;;;;;;;;;;;;;;;;;;
2021/04/16 04:43:11;;;;;;;14.88;9.68;;;-2.90;99.90;;;;;;4966812;29;20047;-91
2021/04/16 04:46:17;;;;;;;16.25;11.38;;;-2.90;99.90;;;;;;4949248;28;20070;-91
2021/04/16 04:49:19;;;;;;;20.83;11.18;;;-2.80;99.90;;;;;;4978308;28;20066;-90
2021/04/16 04:52:27;;;;;;;19.27;11.60;;;-2.80;99.90;;;;;;4944260;29;20510;-92
2021/04/16 04:55:29;;;;;;;18.33;11.63;;;-2.70;99.90;;;;;;4930421;29;20150;-91
2021/04/16 04:58:18;;;;;;;15.27;10.60;;;-2.70;99.90;;;;;;4926593;29;20075;-91
2021/04/16 05:01:24;;;;;;;17.95;11.05;;;-2.60;99.90;;;;;;4940208;28;20468;-91
2021/04/16 05:04:09;;;;;;;;;;;;;;;;;;;;;
2021/04/16 05:06:42;;;;;;;17.80;11.00;;;-2.50;99.90;;;;;;5038443;22;20073;-86
2021/04/16 05:09:23;;;;;;;14.73;9.68;;;-2.40;99.90;;;;;;5023411;28;20072;-91
2021/04/16 05:12:46;;;;;;;;;;;;;;;;;;;;;
2021/04/16 05:19:21;;;;;;;13.77;9.80;;;-2.20;99.90;;;;;;4986402;28;20065;-90
2021/04/16 05:22:16;;;;;;;13.43;9.80;;;-2.00;99.90;;;;;;4987068;28;20055;-89
2021/04/16 05:25:25;;;;;;;13.90;9.73;;;-1.80;99.90;;;;;;4967199;28;20151;-90
2021/04/16 05:27:52;;;;;;;17.92;9.93;;;-1.60;99.90;;;;;;4953478;29;20083;-88
2021/04/16 05:30:29;;;;;;;;;;;;;;;;;;;;;
2021/04/16 05:33:07;;;;;;;16.65;8.57;;;-1.40;99.90;;;;;;4986388;28;20046;-92
2021/04/16 05:39:52;;;;;;;;;;;;;;;;;;;;;
2021/04/16 05:42:40;;;;;;;13.65;7.50;;;-0.80;99.90;;;;;;4993585;28;20049;-90
2021/04/16 05:45:13;;;;;;;9.40;7.18;;;-0.60;99.90;;;;;;4987053;28;20046;-87
2021/04/16 05:47:47;;;;;;;12.23;6.80;;;-0.50;99.90;;;;;;4992200;28;20401;-87
2021/04/16 05:50:15;;;;;;;13.45;6.88;;;-0.20;99.90;;;;;;4991305;28;20042;-87
2021/04/16 05:52:44;;;;;;;9.05;6.43;;;0.10;99.90;;;;;;4987310;28;20061;-87
2021/04/16 05:55:16;;;;;;;11.23;6.20;;;0.30;99.90;;;;;;4991719;28;20061;-89
2021/04/16 05:58:13;;;;;;;;;;;;;;;;;;;;;
2021/04/16 06:00:43;;;;;;;7.75;5.82;;;0.70;99.90;;;;;;4989910;28;20150;-89
2021/04/16 06:03:41;;;;;;;10.07;6.18;;;0.90;99.90;;;;;;4974502;28;20244;-88
2021/04/16 06:09:38;;;;;;;13.85;6.20;;;1.20;99.90;;;;;;4956321;28;20085;-88
2021/04/16 06:12:38;;;;;;;;;;;;;;;;;;;;;
2021/04/16 06:15:26;;;;;;;8.45;5.70;;;1.30;99.90;;;;;;5011154;28;20069;-91
2021/04/16 06:17:55;;;;;;;6.43;5.65;;;1.40;99.90;;;;;;5017464;28;20062;-90
2021/04/16 06:20:24;;;;;;;9.95;6.88;;;1.40;99.90;;;;;;5019809;28;20440;-89
2021/04/16 06:22:59;;;;;;;11.40;5.95;;;1.50;99.90;;;;;;5022334;28;20049;-88
2021/04/16 06:25:33;;;;;;;9.63;5.97;;;1.70;99.90;;;;;;5012299;28;20064;-87
2021/04/16 06:28:03;;;;;;;;;;;2.00;99.90;;;;;;5006861;28;20050;-88
2021/04/16 06:30:35;;;;;;;8.15;5.95;;;2.30;99.90;;;;;;5010117;28;19921;-90
2021/04/16 06:33:24;;;;;;;8.55;6.43;;;2.50;99.90;;;;;;5004650;28;20121;-89
2021/04/16 06:36:07;;;;;;;;;;;2.50;99.90;;;;;;5004458;28;20423;-88
2021/04/16 06:38:41;;;;;;;9.30;5.90;;;2.50;99.90;;;;;;5004911;28;20017;-90
2021/04/16 06:41:33;;;;;;;10.70;6.57;;;2.40;99.90;;;;;;5015039;28;20042;-88
2021/04/16 06:44:16;;;;;;;10.20;6.18;;;2.30;99.90;;;;;;4999276;28;20375;-89
2021/04/16 06:46:57;;;;;;;8.98;7.25;;;2.10;99.90;;;;;;5013196;28;20133;-89
2021/04/16 06:49:34;;;;;;;11.23;7.35;;;2.30;99.90;;;;;;5009692;28;20046;-89
2021/04/16 06:52:53;;;;;;;9.60;6.20;;;2.50;99.90;;;;;;4956683;28;20503;-91
2021/04/16 06:55:35;;;;;;;9.98;6.57;;;2.90;99.90;;;;;;4958203;28;20367;-91
2021/04/16 06:58:52;;;;;;;;;;;;;;;;;;;;;
2021/04/16 07:02:17;;;;;;;;;;;;;;;;;;;;;
2021/04/16 07:05:47;;;;;;;;;;;;;;;;;;;;;
2021/04/16 07:09:09;;;;;;;8.63;5.75;;;4.60;99.90;;;;;;4895342;29;20052;-90
2021/04/16 07:12:33;;;;;;;;;;;;;;;;;;;;;
2021/04/16 07:15:42;;;;;;;7.18;5.60;;;5.40;99.90;;;;;;4804165;29;20126;-91
2021/04/16 07:18:38;;;;;;;;;;;;;;;;;;;;;
2021/04/16 07:21:30;;;;;;;8.27;5.40;;;5.40;99.90;;;;;;4800463;29;21668;-89
2021/04/16 07:24:36;;;;;;;;;;;;;;;;;;;;;
2021/04/16 07:28:05;;;;;;;;;;;;;;;;;;;;;
2021/04/16 07:30:57;;;;;;;;;;;;;;;;;;;;;
2021/04/16 07:33:42;;;;;;;;;;;;;;;;;;;;;
2021/04/16 07:36:30;;;;;;;7.60;4.95;;;7.20;98.00;;;;;;4901549;29;20407;-91
2021/04/16 07:39:26;;;;;;;6.32;4.97;;;7.30;93.60;;;;;;4855463;29;20080;-92
2021/04/16 07:42:14;;;;;;;5.40;4.70;;;7.40;93.10;;;;;;4875264;29;20054;-90
2021/04/16 07:44:58;;;;;;;7.32;4.47;;;7.70;93.20;;;;;;4879232;29;20060;-89
2021/04/16 07:48:15;;;;;;;4.82;4.05;;;8.10;89.10;;;;;;4866567;29;20048;-91
2021/04/16 07:50:54;;;;;;;6.65;4.65;;;8.40;87.40;;;;;;4880663;29;20092;-90
2021/04/16 07:53:43;;;;;;;7.47;5.10;;;8.10;84.80;;;;;;4885630;29;20128;-89
2021/04/16 07:56:19;;;;;;;5.85;4.63;;;7.60;89.70;;;;;;4873399;29;20053;-89
2021/04/16 07:59:10;;;;;;;5.50;4.60;;;7.70;86.80;;;;;;4880551;29;20371;-90
2021/04/16 08:01:39;;;;;;;8.95;4.72;;;7.80;84.10;;;;;;4911443;29;20047;-89
2021/04/16 08:04:34;;;;;;;5.25;4.15;;;8.10;84.80;;;;;;4995279;28;20451;-89
2021/04/16 08:07:35;;;;;;;;;;;;;;;;;;;;;
2021/04/16 08:10:25;;;;;;;;;;;;;;;;;;;;;
2021/04/16 08:13:36;;;;;;;5.93;4.13;;;9.30;75.40;;;;;;5002765;28;20424;-91
2021/04/16 08:16:36;;;;;;;;;;;;;;;;;;;;;
2021/04/16 08:19:41;;;;;;;6.93;4.20;;;10.30;70.40;;;;;;4994966;28;20046;-89
2021/04/16 08:22:35;;;;;;;8.95;4.85;;;9.70;68.60;;;;;;5015803;28;20499;-89
2021/04/16 08:25:16;;;;;;;9.32;5.03;;;8.70;74.20;;;;;;5009959;28;20054;-91
2021/04/16 08:27:52;;;;;;;8.55;4.53;;;9.10;75.50;;;;;;5010714;28;20084;-89
2021/04/16 08:30:55;;;;;;;6.18;5.15;;;8.60;72.60;;;;;;5009815;28;20057;-91
2021/04/16 08:33:48;;;;;;;8.98;5.18;;;7.70;77.90;;;;;;5002595;28;20129;-92
2021/04/16 08:36:24;;;;;;;6.57;5.40;;;6.60;87.00;;;;;;5001722;28;20050;-89
2021/04/16 08:38:56;;;;;;;10.00;5.78;;;6.00;92.80;;;;;;5013507;28;20077;-89
2021/04/16 08:41:32;;;;;;;8.50;5.57;;;5.50;98.50;;;;;;5011199;28;20058;-91
2021/04/16 08:44:06;;;;;;;5.18;4.68;;;5.40;99.90;;;;;;5022956;28;20049;-90
2021/04/16 08:46:36;;;;;;;7.13;5.75;;;5.30;99.90;;;;;;5025478;28;20088;-90
2021/04/16 08:49:27;;;;;;;9.23;5.90;;;5.00;99.90;;;;;;5028034;28;20053;-88
2021/04/16 08:51:58;;;;;;;8.93;6.45;;;4.90;99.90;;;;;;5005517;28;20054;-89
2021/04/16 08:55:07;;;;;;;;;;;;;;;;;;;;;
2021/04/16 08:57:44;;;;;;;11.30;5.72;;;4.90;99.90;;;;;;5010187;28;20053;-91
2021/04/16 09:00:27;;;;;;;8.05;5.35;;;4.70;99.90;;;;;;5013692;28;20395;-92
2021/04/16 09:03:21;;;;;;;8.45;6.43;;;4.70;99.90;;;;;;5011255;28;20081;-91
2021/04/16 09:06:02;;;;;;;9.02;6.72;;;4.60;99.90;;;;;;5003471;28;20057;-90
2021/04/16 09:08:38;;;;;;;8.48;6.32;;;4.90;99.90;;;;;;5013946;28;20132;-89
2021/04/16 09:11:52;;;;;;;8.20;6.10;;;5.40;99.90;;;;;;5005122;28;20064;-90
2021/04/16 09:14:32;;;;;;;6.72;5.10;;;6.10;99.90;;;;;;5009891;28;20134;-91
2021/04/16 09:17:07;;;;;;;6.28;4.95;;;6.30;98.50;;;;;;5011303;28;20184;-89
2021/04/16 09:19:58;;;;;;;7.78;5.10;;;6.10;99.00;;;;;;5006534;28;20042;-90
2021/04/16 09:22:46;;;;;;;4.45;3.88;;;6.00;98.70;;;;;;4998154;28;20129;-87
2021/04/16 09:25:32;;;;;;;8.00;4.30;;;6.30;97.80;;;;;;5000669;28;20084;-90
2021/04/16 09:28:23;;;;;;;4.78;3.92;;;6.80;95.80;;;;;;5003375;28;20042;-88
2021/04/16 09:31:22;;;;;;;7.60;5.00;;;6.80;91.80;;;;;;5004161;28;20052;-90
2021/04/16 09:34:25;;;;;;;5.97;4.05;;;6.40;92.70;;;;;;5016194;28;20049;-88
2021/04/16 09:37:45;;;;;;;;;;;;;;;;;;;;;
2021/04/16 09:40:44;;;;;;;6.28;4.40;;;6.30;98.70;;;;;;5022205;28;20058;-90
2021/04/16 09:43:51;;;;;;;6.53;4.15;;;7.40;89.50;;;;;;5029753;28;20050;-92
2021/04/16 09:46:45;;;;;;;;;;;;;;;;;;;;;
2021/04/16 09:50:09;;;;;;;;;;;;;;;;;;;;;
2021/04/16 09:53:13;;;;;;;5.40;4.82;;;6.60;90.40;;;;;;5013047;28;20120;-89
2021/04/16 09:56:11;;;;;;;;;;;;;;;;;;;;;
2021/04/16 09:58:42;;;;;;;6.80;5.05;;;5.30;98.90;;;;;;5000380;28;20046;-89
2021/04/16 10:01:34;;;;;;;6.47;4.68;;;5.20;99.30;;;;;;5011584;28;20392;-87
2021/04/16 10:04:11;;;;;;;6.32;5.20;;;5.10;99.90;;;;;;5015623;28;20046;-88
2021/04/16 10:06:44;;;;;;;6.10;5.10;;;5.70;99.90;;;;;;5014125;28;20114;-89
2021/04/16 10:09:17;;;;;;;5.43;4.72;;;6.10;96.00;;;;;;5013801;28;20156;-89
2021/04/16 10:12:19;;;;;;;8.32;5.07;;;6.00;93.40;;;;;;5002179;28;20361;-91
2021/04/16 10:19:00;;;;;;;6.05;4.70;;;5.80;94.80;;;;;;4953218;28;20122;-90
2021/04/16 10:22:15;;;;;;;6.60;4.07;;;5.90;95.70;;;;;;4930142;29;20082;-90
2021/04/16 10:58:05;;;;;;;5.22;3.58;;;7.50;71.90;;;;;;4923008;29;20120;-90
2021/04/16 12:38:54;;;;;;;8.60;5.50;;;5.60;95.40;;;;;;5024910;28;20057;-85
2021/04/16 12:41:25;;;;;;;5.35;4.78;;;5.60;94.60;;;;;;5006902;28;20054;-86
2021/04/16 12:43:53;;;;;;;5.22;4.60;;;5.50;93.90;;;;;;5007908;28;20152;-86
2021/04/16 12:46:23;;;;;;;6.38;4.90;;;5.40;95.10;;;;;;5011973;28;20053;-86
2021/04/16 12:48:50;;;;;;;5.38;4.88;;;5.30;95.10;;;;;;5001319;28;20057;-85
2021/04/16 12:51:17;;;;;;;6.03;4.88;;;5.40;97.20;;;;;;5009885;28;20077;-87
2021/04/16 12:53:49;;;;;;;6.03;4.80;;;5.40;95.40;;;;;;5012450;28;20137;-86
2021/04/16 12:56:20;;;;;;;5.07;4.57;;;5.40;96.00;;;;;;5009530;28;20145;-87
2021/04/16 12:58:48;;;;;;;8.40;5.85;;;5.40;95.10;;;;;;5007746;28;20077;-88
2021/04/16 13:01:25;;;;;;;9.27;6.28;;;5.30;96.10;;;;;;5007930;28;20072;-88
2021/04/16 13:03:53;;;;;;;7.93;4.97;;;5.40;96.40;;;;;;5013395;28;20069;-87
2021/04/16 13:06:28;;;;;;;8.02;5.03;;;5.40;96.10;;;;;;5015064;28;20046;-87
2021/04/16 13:08:56;;;;;;;5.85;4.30;;;5.40;94.40;;;;;;5002630;28;20137;-88
2021/04/16 13:11:23;;;;;;;5.10;4.28;;;5.40;94.70;;;;;;5015178;28;20026;-87
2021/04/16 13:13:51;;;;;;;7.22;4.78;;;5.20;93.60;;;;;;5031164;28;20056;-87
2021/04/16 13:16:18;;;;;;;5.25;4.65;;;5.10;96.10;;;;;;5028702;28;20054;-87
2021/04/16 13:18:49;;;;;;;5.03;4.53;;;5.10;96.00;;;;;;5035826;28;20045;-87
2021/04/16 13:21:24;;;;;;;6.90;4.60;;;5.10;97.30;;;;;;5014127;28;20081;-87
2021/04/16 13:23:50;;;;;;;5.10;4.15;;;5.10;95.10;;;;;;5014131;28;20428;-86
2021/04/16 13:26:17;;;;;;;6.18;4.22;;;5.10;94.90;;;;;;5010707;28;20463;-86
2021/04/16 13:28:45;;;;;;;4.57;4.18;;;5.10;94.30;;;;;;5011147;28;20325;-88
2021/04/16 13:31:13;;;;;;;4.80;4.20;;;5.20;94.20;;;;;;5001676;28;20352;-87
2021/04/16 13:33:42;;;;;;;4.75;3.80;;;5.20;93.10;;;;;;5002470;28;20137;-88
2021/04/16 13:36:19;;;;;;;6.63;4.40;;;5.20;95.30;;;;;;5012526;28;20129;-88
2021/04/16 13:38:47;;;;;;;6.30;4.10;;;5.20;94.40;;;;;;5008004;28;20116;-87
2021/04/16 13:41:14;;;;;;;4.78;4.22;;;5.30;94.10;;;;;;5010162;28;20050;-90
2021/04/16 13:43:41;;;;;;;11.00;4.30;;;5.30;94.00;;;;;;5010155;28;20050;-88
2021/04/16 13:46:14;;;;;;;4.70;4.00;;;5.40;94.80;;;;;;5007094;28;20042;-87
2021/04/16 13:48:46;;;;;;;7.07;4.70;;;5.60;94.80;;;;;;5012029;28;20061;-88
2021/04/16 13:51:16;;;;;;;9.38;4.80;;;5.70;92.80;;;;;;5008097;28;20204;-88
2021/04/16 13:53:47;;;;;;;6.25;4.65;;;5.80;93.40;;;;;;5007014;28;20060;-87
2021/04/16 13:56:17;;;;;;;5.50;4.33;;;5.80;92.50;;;;;;5009209;28;20054;-88
2021/04/16 13:58:47;;;;;;;5.43;4.82;;;5.90;93.10;;;;;;5015800;28;20295;-89
2021/04/16 14:01:15;;;;;;;14.00;9.68;;;5.90;92.00;;;;;;5015352;28;20054;-89
2021/04/16 14:03:48;;;;;;;9.02;5.75;;;5.90;92.90;;;;;;5011726;28;20046;-90
2021/04/16 14:06:24;;;;;;;4.78;4.25;;;6.00;94.10;;;;;;5017086;28;20046;-90
2021/04/16 14:09:07;;;;;;;5.20;4.70;;;6.10;92.00;;;;;;5009328;28;20124;-89
2021/04/16 14:11:34;;;;;;;6.65;4.68;;;6.20;92.90;;;;;;5008078;28;20046;-89
2021/04/16 14:14:13;;;;;;;8.30;5.32;;;6.40;93.60;;;;;;5015240;28;20371;-89
2021/04/16 14:16:42;;;;;;;6.38;5.13;;;6.40;91.90;;;;;;5016392;28;20474;-90
2021/04/16 14:19:17;;;;;;;5.78;5.03;;;6.30;91.70;;;;;;5010199;28;20066;-90
2021/04/16 14:21:45;;;;;;;6.05;5.47;;;6.30;92.00;;;;;;4998566;28;20449;-87
2021/04/16 14:24:16;;;;;;;5.50;4.80;;;6.20;92.20;;;;;;5019616;28;20128;-90
2021/04/16 14:26:50;;;;;;;7.28;5.13;;;6.10;92.90;;;;;;5014638;28;20092;-89
2021/04/16 14:29:19;;;;;;;13.65;8.07;;;6.00;94.90;;;;;;5014054;28;20050;-88
2021/04/16 14:31:58;;;;;;;7.85;6.13;;;5.90;95.60;;;;;;5013695;28;20503;-88
2021/04/16 14:34:34;;;;;;;8.73;6.53;;;5.70;95.20;;;;;;5012556;28;20117;-87
2021/04/16 14:37:02;;;;;;;8.18;5.95;;;5.70;97.10;;;;;;5017216;28;20080;-89
2021/04/16 14:39:32;;;;;;;7.80;5.78;;;5.70;96.30;;;;;;5002851;28;20125;-90
2021/04/16 14:42:04;;;;;;;6.82;5.30;;;5.70;96.10;;;;;;5026141;28;20049;-89
2021/04/16 14:44:31;;;;;;;10.88;6.57;;;5.70;95.70;;;;;;5028617;28;20069;-89
2021/04/16 14:47:04;;;;;;;6.32;4.88;;;5.80;96.40;;;;;;5026196;28;20038;-87
2021/04/16 14:49:32;;;;;;;9.23;5.93;;;5.90;94.80;;;;;;5035384;28;20103;-88
2021/04/16 14:52:10;;;;;;;5.60;4.70;;;5.90;93.40;;;;;;5031928;28;20061;-89
2021/04/16 14:54:47;;;;;;;5.78;4.85;;;5.90;92.30;;;;;;5018593;28;20097;-88
2021/04/16 14:57:30;;;;;;;5.25;4.70;;;5.80;92.90;;;;;;5026945;28;20069;-89
2021/04/16 14:59:58;;;;;;;8.70;4.40;;;5.70;92.60;;;;;;5022292;28;20078;-89
2021/04/16 15:02:36;;;;;;;8.20;4.95;;;5.60;93.20;;;;;;5018755;28;20438;-91
2021/04/16 15:05:08;;;;;;;5.05;4.43;;;5.60;94.40;;;;;;5019600;28;20042;-89
2021/04/16 15:07:42;;;;;;;6.20;5.18;;;5.50;93.80;;;;;;5018765;28;20050;-89
2021/04/16 15:10:36;;;;;;;6.05;4.55;;;5.40;94.70;;;;;;5008454;28;20050;-90
2021/04/16 15:13:16;;;;;;;5.20;4.70;;;5.40;95.20;;;;;;5010223;28;20058;-89
2021/04/16 15:15:48;;;;;;;5.85;4.53;;;5.40;95.60;;;;;;5004150;28;20042;-88
2021/04/16 15:18:43;;;;;;;4.75;4.25;;;5.40;95.10;;;;;;4996096;28;20128;-88
2021/04/16 15:21:22;;;;;;;5.60;4.28;;;5.40;94.10;;;;;;4979966;28;20057;-89
2021/04/16 15:24:10;;;;;;;4.72;3.95;;;5.50;95.80;;;;;;4985337;28;20054;-88
2021/04/16 15:26:40;;;;;;;5.15;3.83;;;5.30;94.30;;;;;;4995463;28;20062;-90
2021/04/16 15:29:23;;;;;;;7.72;3.90;;;5.20;95.40;;;;;;4987234;28;20049;-89
2021/04/16 15:32:12;;;;;;;5.05;4.25;;;5.10;95.00;;;;;;4999583;28;20138;-91
2021/04/16 15:46:39;;;;;;;6.38;3.88;;;5.10;94.70;;;;;;4993459;28;20054;-89
2021/04/16 15:49:09;;;;;;;4.38;3.40;;;5.10;94.60;;;;;;4995023;28;20053;-88
2021/04/16 15:52:08;;;;;;;4.07;3.45;;;5.10;94.60;;;;;;4981233;28;20074;-88
2021/04/16 15:54:35;;;;;;;4.57;3.40;;;5.10;92.90;;;;;;4999677;28;20424;-89
2021/04/16 15:57:18;;;;;;;4.28;3.80;;;5.10;93.30;;;;;;4995995;28;20050;-88
2021/04/16 15:59:48;;;;;;;4.32;3.30;;;5.20;93.10;;;;;;4992925;28;20575;-90
2021/04/16 16:02:27;;;;;;;4.80;3.60;;;5.10;93.20;;;;;;4999914;28;20050;-90
2021/04/16 16:04:54;;;;;;;4.05;3.22;;;5.10;93.60;;;;;;4999983;28;20053;-90
2021/04/16 16:07:23;;;;;;;4.00;3.50;;;5.10;94.70;;;;;;4971741;28;20046;-89
2021/04/16 16:09:54;;;;;;;6.70;3.58;;;5.10;94.30;;;;;;4980371;28;20502;-88
2021/04/16 16:12:36;;;;;;;3.97;3.47;;;5.00;96.60;;;;;;4974530;28;20050;-88
2021/04/16 16:15:17;;;;;;;4.70;3.35;;;4.90;95.50;;;;;;4991238;28;20061;-88
2021/04/16 16:17:57;;;;;;;5.10;3.70;;;4.90;95.90;;;;;;4978249;28;20197;-87
2021/04/16 16:20:35;;;;;;;3.72;3.22;;;4.80;96.40;;;;;;4984292;28;20042;-89
2021/04/16 16:23:08;;;;;;;4.55;3.67;;;4.80;97.50;;;;;;4986711;28;20058;-90
2021/04/16 16:25:43;;;;;;;5.85;3.72;;;4.70;97.90;;;;;;4979464;28;20157;-90
2021/04/16 16:28:30;;;;;;;3.67;3.30;;;4.70;99.90;;;;;;4981462;28;20341;-89
2021/04/16 16:31:08;;;;;;;3.97;3.67;;;4.80;98.70;;;;;;4975637;28;20137;-88
2021/04/16 16:33:36;;;;;;;6.57;3.45;;;4.80;99.90;;;;;;4977120;28;20242;-88
2021/04/16 16:36:08;;;;;;;4.40;3.70;;;4.70;98.80;;;;;;4978700;28;20349;-90
2021/04/16 16:38:35;;;;;;;5.25;3.53;;;4.70;99.90;;;;;;4978913;28;20050;-89
2021/04/16 16:41:05;;;;;;;4.60;4.00;;;4.70;99.90;;;;;;4978308;28;20112;-90
2021/04/16 16:43:40;;;;;;;4.10;3.70;;;4.60;99.90;;;;;;4993556;28;20050;-89
2021/04/16 16:46:11;;;;;;;4.35;3.88;;;4.60;99.90;;;;;;4994727;28;20091;-88
2021/04/16 16:48:42;;;;;;;4.75;4.20;;;4.60;99.90;;;;;;4994446;28;20057;-88
2021/04/16 16:51:23;;;;;;;3.53;3.22;;;4.60;99.90;;;;;;4978087;28;20065;-91
2021/04/16 16:53:50;;;;;;;4.57;4.15;;;4.60;99.90;;;;;;4978075;28;20383;-90
2021/04/16 16:56:29;;;;;;;7.18;4.40;;;4.60;99.90;;;;;;4994537;28;20058;-90
2021/04/16 16:59:05;;;;;;;5.00;4.50;;;4.60;99.90;;;;;;4978956;28;20109;-89
2021/04/16 17:01:37;;;;;;;6.60;5.30;;;4.50;99.90;;;;;;4980040;28;20070;-88
2021/04/16 17:04:08;;;;;;;5.65;4.50;;;4.50;99.90;;;;;;4979354;28;20054;-89
2021/04/16 17:06:36;;;;;;;5.35;4.85;;;4.50;99.90;;;;;;5002233;28;20049;-89
2021/04/16 17:09:07;;;;;;;8.45;4.85;;;4.40;99.90;;;;;;5006444;28;20432;-90
2021/04/16 17:11:41;;;;;;;6.15;5.20;;;4.40;99.90;;;;;;5013850;28;20133;-88
2021/04/16 17:14:18;;;;;;;6.55;5.10;;;4.30;99.90;;;;;;5015172;28;20108;-89
2021/04/16 17:16:44;;;;;;;7.20;5.03;;;4.30;99.90;;;;;;5013186;28;20096;-88
2021/04/16 17:19:12;;;;;;;5.97;4.63;;;4.20;99.90;;;;;;5010679;28;20053;-88
2021/04/16 17:21:40;;;;;;;5.57;4.80;;;4.30;99.90;;;;;;5014964;28;20537;-87
2021/04/16 17:24:18;;;;;;;6.30;4.72;;;4.20;99.90;;;;;;5014268;28;20049;-89
2021/04/16 17:26:57;;;;;;;6.70;4.68;;;4.10;99.90;;;;;;5012927;28;20050;-89
2021/04/16 17:29:32;;;;;;;6.95;4.68;;;4.10;99.90;;;;;;4995353;28;20414;-89
2021/04/16 17:32:10;;;;;;;7.22;4.93;;;4.10;99.90;;;;;;5019867;28;20061;-89
2021/04/16 17:34:39;;;;;;;5.22;4.70;;;4.10;99.90;;;;;;5026377;28;20046;-88
2021/04/16 17:37:08;;;;;;;6.70;5.15;;;4.10;99.90;;;;;;5028725;28;20128;-89
2021/04/16 17:39:35;;;;;;;5.80;5.07;;;4.00;99.90;;;;;;5030709;28;20097;-88
2021/04/16 17:42:23;;;;;;;6.03;5.40;;;4.00;99.90;;;;;;5032419;28;20136;-89
2021/04/16 17:47:39;;;;;;;6.07;5.45;;;3.90;99.90;;;;;;5016352;28;20045;-87
2021/04/16 17:50:27;;;;;;;5.43;4.90;;;3.90;99.90;;;;;;5017590;28;20042;-91
2021/04/16 17:53:00;;;;;;;8.18;5.97;;;3.90;99.90;;;;;;5012897;28;20057;-89
2021/04/16 17:55:42;;;;;;;7.80;5.25;;;3.90;99.90;;;;;;5009812;28;20453;-87
2021/04/16 17:58:42;;;;;;;5.72;4.90;;;3.80;99.90;;;;;;5012663;28;20501;-86
2021/04/16 18:01:12;;;;;;;7.10;5.47;;;3.80;99.90;;;;;;4999909;28;20076;-88
2021/04/16 18:03:41;;;;;;;7.75;5.50;;;3.80;99.90;;;;;;5009126;28;20070;-87
2021/04/16 18:06:15;;;;;;;10.00;5.78;;;3.80;99.90;;;;;;4998113;28;20069;-88
2021/04/16 18:08:42;;;;;;;8.90;5.18;;;3.70;99.90;;;;;;5014027;28;20058;-88
2021/04/16 18:11:25;;;;;;;6.15;5.15;;;3.70;99.90;;;;;;5010236;28;20448;-89
2021/04/16 18:13:56;;;;;;;7.95;6.10;;;3.70;99.90;;;;;;5005484;28;20583;-89
2021/04/16 18:16:22;;;;;;;9.43;5.78;;;3.70;99.90;;;;;;5008812;28;20050;-88
2021/04/16 18:18:50;;;;;;;7.20;6.10;;;3.70;99.90;;;;;;5012234;28;20438;-89
2021/04/16 18:21:26;;;;;;;8.15;5.75;;;3.60;99.90;;;;;;4999547;28;20530;-90
2021/04/16 18:24:20;;;;;;;7.38;5.47;;;3.60;99.90;;;;;;4994437;28;20053;-89
2021/04/16 18:26:53;;;;;;;9.48;5.50;;;3.60;99.90;;;;;;5006929;28;20045;-88